Time;durP1;ratioP1;P1;durP2;ratioP2;P2;SDS_P1;SDS_P2;PMS_P1;PMS_P2;Temp;Humidity;BMP_temperature;BMP_pressure;BME280_temperature;BME280_humidity;BME280_pressure;Samples;Min_cycle;Max_cycle;Signal;HPM_P1;HPM_P2
2022/11/09 00:00:19;;;;;;;9.40;4.17;;;15.40;75.50;;;;;;4983395;28;20812;-50
2022/11/09 00:02:45;;;;;;;9.35;4.07;;;15.40;76.10;;;;;;4985350;28;20034;-47
2022/11/09 00:05:11;;;;;;;9.73;3.83;;;15.40;75.40;;;;;;4985212;28;20041;-49
2022/11/09 00:07:36;;;;;;;8.00;3.93;;;15.40;75.20;;;;;;4984845;28;20042;-52
2022/11/09 00:10:02;;;;;;;8.90;3.80;;;15.30;75.60;;;;;;4986626;28;20570;-58
2022/11/09 00:12:28;;;;;;;14.63;4.20;;;15.30;75.80;;;;;;4996261;28;20035;-58
2022/11/09 00:14:53;;;;;;;10.37;4.20;;;15.30;76.00;;;;;;4983692;28;20336;-50
2022/11/09 00:17:19;;;;;;;11.93;4.13;;;15.30;75.50;;;;;;4984234;28;20069;-52
2022/11/09 00:19:44;;;;;;;6.43;3.67;;;15.30;75.40;;;;;;4986396;28;20031;-52
2022/11/09 00:22:11;;;;;;;5.57;3.40;;;15.30;75.40;;;;;;4985672;28;20066;-58
2022/11/09 00:24:36;;;;;;;9.15;3.53;;;15.30;75.40;;;;;;4986411;28;20038;-50
2022/11/09 00:27:02;;;;;;;8.90;3.27;;;15.30;75.30;;;;;;4986084;28;20101;-54
2022/11/09 00:29:27;;;;;;;8.53;3.17;;;15.30;75.20;;;;;;4986145;28;20035;-52
2022/11/09 00:31:53;;;;;;;6.47;3.73;;;15.30;76.00;;;;;;4983971;28;20029;-53
2022/11/09 00:34:19;;;;;;;8.63;4.07;;;15.30;76.50;;;;;;4986759;28;20041;-58
2022/11/09 00:36:44;;;;;;;10.87;3.90;;;15.20;76.40;;;;;;4987702;28;20073;-52
2022/11/09 00:39:10;;;;;;;6.83;3.50;;;15.30;77.10;;;;;;4986375;28;20092;-54
2022/11/09 00:41:35;;;;;;;8.13;3.73;;;15.30;77.50;;;;;;4984389;28;20796;-56
2022/11/09 00:44:01;;;;;;;9.23;3.50;;;15.20;76.80;;;;;;4984921;28;20030;-51
2022/11/09 00:46:27;;;;;;;8.23;3.90;;;15.30;77.50;;;;;;4985918;28;20059;-57
2022/11/09 00:48:54;;;;;;;7.60;3.90;;;15.20;77.60;;;;;;4985772;28;20031;-49
2022/11/09 00:51:20;;;;;;;9.95;4.15;;;15.20;78.00;;;;;;4984559;28;20518;-57
2022/11/09 00:53:47;;;;;;;9.27;4.23;;;15.20;78.80;;;;;;4984583;28;20054;-56
2022/11/09 00:56:12;;;;;;;8.27;4.43;;;15.20;78.20;;;;;;4987649;28;20265;-52
2022/11/09 00:58:39;;;;;;;11.73;4.37;;;15.20;78.40;;;;;;4986849;28;20027;-51
2022/11/09 01:01:16;;;;;;;5.95;3.55;;;15.20;78.40;;;;;;4981415;28;20395;-53
2022/11/09 01:03:43;;;;;;;9.15;3.95;;;15.10;79.00;;;;;;4983080;28;20069;-52
2022/11/09 01:06:22;;;;;;;8.80;4.32;;;15.10;78.80;;;;;;4984274;28;20403;-54
2022/11/09 01:08:48;;;;;;;9.73;3.97;;;15.10;78.40;;;;;;4975787;28;20018;-52
2022/11/09 01:11:16;;;;;;;8.67;4.03;;;15.00;78.90;;;;;;4984699;28;20029;-53
2022/11/09 01:13:42;;;;;;;11.45;4.00;;;15.00;78.80;;;;;;4982399;28;20038;-53
2022/11/09 01:16:10;;;;;;;13.50;4.75;;;15.00;78.60;;;;;;4986343;28;20093;-50
2022/11/09 01:18:37;;;;;;;6.45;4.05;;;15.00;79.20;;;;;;4984968;28;20026;-53
2022/11/09 01:21:03;;;;;;;;;;;15.00;79.20;;;;;;4986000;28;20049;-52
2022/11/09 01:23:29;;;;;;;8.48;3.90;;;15.00;78.80;;;;;;4988259;28;20037;-52
2022/11/09 01:26:04;;;;;;;7.97;4.33;;;15.00;78.50;;;;;;4984230;28;20125;-53
2022/11/09 01:28:30;;;;;;;8.95;4.13;;;15.00;79.20;;;;;;4983136;28;20121;-54
2022/11/09 01:31:04;;;;;;;8.48;4.63;;;14.90;79.50;;;;;;4985845;28;20439;-50
2022/11/09 01:33:30;;;;;;;8.10;4.00;;;14.90;79.80;;;;;;4986056;28;20124;-54
2022/11/09 01:36:02;;;;;;;19.63;4.40;;;14.90;79.70;;;;;;4978063;28;20022;-49
2022/11/09 01:38:28;;;;;;;7.47;3.92;;;14.90;79.70;;;;;;4990322;28;20525;-48
2022/11/09 01:40:53;;;;;;;6.47;4.30;;;14.90;79.50;;;;;;4988206;28;20034;-48
2022/11/09 01:43:21;;;;;;;8.27;4.33;;;14.90;79.80;;;;;;4986427;28;20026;-52
2022/11/09 01:46:11;;;;;;;12.20;3.78;;;14.80;80.10;;;;;;4990580;28;20023;-55
2022/11/09 01:48:39;;;;;;;9.10;4.18;;;14.80;80.30;;;;;;4986378;28;20031;-51
2022/11/09 01:51:21;;;;;;;9.07;4.40;;;14.90;79.70;;;;;;4987486;28;20424;-51
2022/11/09 01:53:50;;;;;;;9.43;4.60;;;14.80;80.40;;;;;;4987955;28;20026;-53
2022/11/09 01:56:16;;;;;;;10.25;5.25;;;14.90;79.80;;;;;;4988802;28;20030;-56
2022/11/09 01:58:53;;;;;;;;;;;14.90;80.40;;;;;;4990498;28;20023;-56
2022/11/09 02:01:20;;;;;;;7.70;3.85;;;14.80;80.60;;;;;;4989181;28;19960;-47
2022/11/09 02:03:58;;;;;;;8.75;4.40;;;14.80;80.80;;;;;;4985242;28;20073;-48
2022/11/09 02:06:26;;;;;;;10.82;4.43;;;14.90;80.00;;;;;;4989542;28;20039;-52
2022/11/09 02:08:58;;;;;;;8.80;4.30;;;14.90;80.40;;;;;;4988967;28;20050;-53
2022/11/09 02:11:28;;;;;;;7.38;4.15;;;14.80;80.60;;;;;;4989241;28;20520;-49
2022/11/09 02:13:57;;;;;;;9.07;4.70;;;14.80;80.80;;;;;;4989143;28;20462;-47
2022/11/09 02:16:25;;;;;;;9.80;4.03;;;14.80;80.60;;;;;;4987900;28;20022;-47
2022/11/09 02:18:56;;;;;;;13.38;4.78;;;14.80;81.50;;;;;;4988576;28;20065;-49
2022/11/09 02:21:24;;;;;;;8.52;4.88;;;14.80;81.00;;;;;;4987758;28;20054;-45
2022/11/09 02:23:50;;;;;;;10.15;4.38;;;14.70;81.40;;;;;;4990198;28;20077;-49
2022/11/09 02:26:23;;;;;;;10.40;5.20;;;14.70;81.50;;;;;;4984931;28;20027;-49
2022/11/09 02:28:50;;;;;;;9.57;4.93;;;14.80;81.70;;;;;;4987322;28;20081;-50
2022/11/09 02:31:16;;;;;;;11.73;5.13;;;14.80;82.10;;;;;;4988113;28;20499;-53
2022/11/09 02:33:52;;;;;;;;;;;14.80;82.00;;;;;;4988420;28;20038;-48
2022/11/09 02:36:18;;;;;;;10.15;5.45;;;14.80;82.60;;;;;;4987977;28;19946;-52
2022/11/09 02:38:43;;;;;;;11.07;5.27;;;14.80;82.80;;;;;;4987152;28;20517;-51
2022/11/09 02:41:11;;;;;;;12.20;5.70;;;14.70;82.70;;;;;;4985129;28;20037;-53
2022/11/09 02:43:38;;;;;;;12.65;6.45;;;14.70;83.30;;;;;;4988288;28;20034;-51
2022/11/09 02:46:04;;;;;;;9.88;5.30;;;14.70;83.10;;;;;;4988413;28;20026;-51
2022/11/09 02:48:30;;;;;;;10.57;5.55;;;14.70;83.30;;;;;;4985943;28;20065;-56
2022/11/09 02:50:56;;;;;;;14.20;5.67;;;14.70;83.10;;;;;;4986162;28;20062;-54
2022/11/09 02:53:21;;;;;;;11.23;5.73;;;14.70;83.00;;;;;;4987711;28;20022;-55
2022/11/09 02:55:47;;;;;;;12.30;6.37;;;14.70;84.00;;;;;;4984437;28;20061;-56
2022/11/09 02:58:12;;;;;;;11.37;5.03;;;14.60;84.30;;;;;;4988791;28;20034;-53
2022/11/09 03:00:38;;;;;;;13.77;5.60;;;14.40;85.40;;;;;;4984273;28;20046;-54
2022/11/09 03:03:04;;;;;;;12.30;5.93;;;14.40;85.30;;;;;;4989631;28;20094;-54
2022/11/09 03:05:30;;;;;;;9.73;4.90;;;14.40;84.90;;;;;;4987879;28;20026;-53
2022/11/09 03:07:56;;;;;;;10.83;5.93;;;14.50;84.50;;;;;;4985362;28;20031;-58
2022/11/09 03:10:21;;;;;;;12.77;5.53;;;14.50;84.90;;;;;;4989495;28;20030;-56
2022/11/09 03:12:47;;;;;;;10.82;5.45;;;14.40;84.00;;;;;;4985947;28;20493;-50
2022/11/09 03:15:13;;;;;;;9.10;5.03;;;14.40;84.20;;;;;;4986130;28;20026;-51
2022/11/09 03:17:39;;;;;;;11.75;5.13;;;14.30;85.00;;;;;;4985645;28;20038;-53
2022/11/09 03:20:05;;;;;;;17.17;5.93;;;14.30;85.10;;;;;;4988646;28;20533;-56
2022/11/09 03:22:31;;;;;;;12.63;5.93;;;14.30;85.60;;;;;;4986747;28;20030;-49
2022/11/09 03:24:56;;;;;;;9.90;6.00;;;14.20;85.70;;;;;;4983912;28;20269;-52
2022/11/09 03:27:22;;;;;;;12.73;7.23;;;14.30;85.90;;;;;;4985692;28;20022;-54
2022/11/09 03:29:47;;;;;;;15.77;6.77;;;14.20;86.50;;;;;;4989026;28;20037;-54
2022/11/09 03:32:13;;;;;;;13.07;6.20;;;14.30;86.30;;;;;;4987841;28;20026;-50
2022/11/09 03:34:38;;;;;;;9.83;6.43;;;14.20;86.50;;;;;;4986112;28;20035;-50
2022/11/09 03:37:04;;;;;;;16.00;7.73;;;14.20;86.20;;;;;;4985542;28;20815;-48
2022/11/09 03:39:30;;;;;;;18.47;7.13;;;14.20;86.30;;;;;;4987226;28;20043;-51
2022/11/09 03:41:55;;;;;;;13.70;7.00;;;14.30;86.40;;;;;;4985617;28;20508;-49
2022/11/09 03:44:21;;;;;;;13.23;6.13;;;14.20;86.80;;;;;;4986420;28;20394;-50
2022/11/09 03:46:47;;;;;;;10.80;6.60;;;14.20;87.30;;;;;;4988869;28;20030;-54
2022/11/09 03:49:12;;;;;;;12.77;6.55;;;14.10;87.60;;;;;;4984944;28;20434;-51
2022/11/09 03:51:38;;;;;;;12.27;6.63;;;14.20;87.50;;;;;;4987331;28;20026;-50
2022/11/09 03:54:04;;;;;;;14.03;6.83;;;14.20;87.50;;;;;;4983898;28;20160;-57
2022/11/09 03:56:29;;;;;;;12.27;6.57;;;14.20;87.20;;;;;;4986805;28;20030;-53
2022/11/09 03:58:55;;;;;;;17.00;7.07;;;14.30;87.00;;;;;;4986860;28;20037;-55
2022/11/09 04:01:21;;;;;;;14.43;7.20;;;14.20;87.00;;;;;;4980887;28;20041;-55
2022/11/09 04:03:46;;;;;;;17.60;7.87;;;14.30;87.20;;;;;;4983953;28;20033;-56
2022/11/09 04:06:12;;;;;;;10.53;6.67;;;14.20;87.30;;;;;;4983805;28;20495;-53
2022/11/09 04:08:37;;;;;;;14.70;6.37;;;14.30;87.20;;;;;;4983676;28;20030;-53
2022/11/09 04:11:03;;;;;;;12.10;6.63;;;14.30;87.40;;;;;;4985421;28;20026;-52
2022/11/09 04:13:28;;;;;;;8.70;6.33;;;14.30;87.20;;;;;;4988694;28;20101;-57
2022/11/09 04:15:54;;;;;;;14.83;6.87;;;14.30;87.20;;;;;;4983798;28;20399;-48
2022/11/09 04:18:20;;;;;;;15.57;6.47;;;14.40;87.10;;;;;;4989171;28;20106;-50
2022/11/09 04:20:45;;;;;;;13.60;7.43;;;14.30;87.30;;;;;;4984140;28;20037;-51
2022/11/09 04:23:12;;;;;;;13.20;7.50;;;14.30;87.20;;;;;;4985879;28;20077;-56
2022/11/09 04:25:39;;;;;;;;;;;14.30;87.80;;;;;;4987936;28;20046;-48
2022/11/09 04:28:06;;;;;;;17.33;8.07;;;14.20;87.70;;;;;;4985767;28;20642;-53
2022/11/09 04:30:33;;;;;;;13.98;6.93;;;14.30;87.60;;;;;;4984194;28;20508;-48
2022/11/09 04:33:00;;;;;;;14.00;7.55;;;14.30;87.50;;;;;;4982124;28;20034;-51
2022/11/09 04:35:27;;;;;;;14.32;7.38;;;14.30;87.60;;;;;;4987727;28;20057;-49
2022/11/09 04:37:54;;;;;;;11.50;6.68;;;14.30;88.60;;;;;;4985064;28;20030;-52
2022/11/09 04:40:21;;;;;;;13.07;6.72;;;14.20;87.50;;;;;;4979152;28;20128;-50
2022/11/09 04:42:46;;;;;;;13.02;7.38;;;14.20;87.90;;;;;;4984341;28;20054;-44
2022/11/09 04:45:12;;;;;;;15.73;6.93;;;14.20;88.20;;;;;;4984743;28;20057;-49
2022/11/09 04:47:37;;;;;;;12.93;7.97;;;14.20;88.30;;;;;;4985523;28;20026;-46
2022/11/09 04:50:03;;;;;;;19.57;7.30;;;14.10;88.60;;;;;;4985947;28;20023;-45
2022/11/09 04:52:29;;;;;;;10.50;7.13;;;14.10;88.50;;;;;;4987453;28;20502;-53
2022/11/09 04:54:54;;;;;;;11.43;7.13;;;14.10;88.50;;;;;;4984165;28;20114;-51
2022/11/09 04:57:20;;;;;;;14.00;6.53;;;14.10;88.20;;;;;;4986476;28;20104;-55
2022/11/09 04:59:45;;;;;;;20.70;7.40;;;14.00;88.30;;;;;;4986988;28;20038;-54
2022/11/09 05:02:11;;;;;;;15.33;6.40;;;14.00;88.50;;;;;;4986056;28;20061;-55
2022/11/09 05:04:37;;;;;;;12.80;6.77;;;14.10;88.20;;;;;;4986270;28;20030;-58
2022/11/09 05:07:02;;;;;;;14.43;6.17;;;14.00;88.40;;;;;;4985342;28;20027;-55
2022/11/09 05:09:28;;;;;;;14.53;6.60;;;14.10;87.90;;;;;;4985369;28;20031;-57
2022/11/09 05:11:53;;;;;;;12.70;7.13;;;14.10;88.40;;;;;;4987152;28;20023;-58
2022/11/09 05:14:19;;;;;;;13.30;7.33;;;14.00;88.50;;;;;;4986804;28;20506;-58
2022/11/09 05:16:44;;;;;;;15.07;7.03;;;14.00;88.80;;;;;;4990084;28;20106;-50
2022/11/09 05:19:10;;;;;;;14.67;6.83;;;14.00;88.50;;;;;;4987718;28;20038;-58
2022/11/09 05:21:36;;;;;;;11.93;6.70;;;14.10;88.60;;;;;;4989561;28;20426;-47
2022/11/09 05:24:01;;;;;;;11.70;6.20;;;14.10;88.70;;;;;;4987056;28;20076;-53
2022/11/09 05:26:34;;;;;;;11.97;5.80;;;14.10;88.70;;;;;;4990773;28;20030;-55
2022/11/09 05:29:05;;;;;;;10.40;6.45;;;14.10;88.50;;;;;;4986448;28;20117;-55
2022/11/09 05:31:32;;;;;;;15.88;6.55;;;14.10;88.40;;;;;;4986688;28;20026;-56
2022/11/09 05:33:58;;;;;;;19.95;6.75;;;14.10;88.30;;;;;;4988044;28;20042;-52
2022/11/09 05:36:24;;;;;;;11.63;6.57;;;14.10;88.60;;;;;;4990142;28;20073;-55
2022/11/09 05:38:50;;;;;;;15.90;7.95;;;14.10;88.60;;;;;;4988017;28;20546;-50
2022/11/09 05:41:16;;;;;;;12.73;7.18;;;14.00;89.10;;;;;;4988845;28;20423;-57
2022/11/09 05:43:43;;;;;;;11.45;6.68;;;14.00;88.90;;;;;;4989086;28;20042;-56
2022/11/09 05:46:10;;;;;;;18.00;8.13;;;14.00;89.20;;;;;;4989709;28;20030;-54
2022/11/09 05:48:35;;;;;;;20.10;7.80;;;14.00;89.40;;;;;;4987621;28;20023;-55
2022/11/09 05:51:02;;;;;;;21.47;8.10;;;13.90;89.70;;;;;;4987001;28;20441;-58
2022/11/09 05:53:28;;;;;;;17.38;8.30;;;13.80;90.10;;;;;;4990628;28;20038;-56
2022/11/09 05:55:54;;;;;;;16.85;7.85;;;13.80;90.10;;;;;;4986213;28;20041;-57
2022/11/09 05:58:20;;;;;;;20.15;7.43;;;13.90;90.00;;;;;;4988548;28;20034;-52
2022/11/09 06:00:46;;;;;;;13.70;7.17;;;13.90;90.10;;;;;;4987389;28;20526;-56
2022/11/09 06:03:12;;;;;;;13.47;6.90;;;13.90;90.30;;;;;;4983334;28;20035;-58
2022/11/09 06:05:39;;;;;;;12.15;7.63;;;13.90;90.10;;;;;;4981322;28;20042;-56
2022/11/09 06:08:08;;;;;;;18.88;7.03;;;13.90;90.00;;;;;;4987146;28;20397;-53
2022/11/09 06:10:33;;;;;;;24.08;7.35;;;13.90;89.90;;;;;;4983920;28;20538;-52
2022/11/09 06:12:59;;;;;;;16.73;7.20;;;14.00;89.70;;;;;;4987549;28;20023;-55
2022/11/09 06:15:26;;;;;;;11.00;6.72;;;14.00;89.90;;;;;;4984918;28;20037;-52
2022/11/09 06:17:55;;;;;;;14.98;7.53;;;14.10;89.80;;;;;;4987342;28;20030;-55
2022/11/09 06:20:22;;;;;;;16.90;7.47;;;14.10;89.80;;;;;;4986809;28;20057;-55
2022/11/09 06:22:59;;;;;;;11.95;7.30;;;14.10;89.60;;;;;;4985938;28;20494;-58
2022/11/09 06:25:25;;;;;;;;;;;14.10;89.20;;;;;;4977175;28;20122;-58
2022/11/09 06:27:54;;;;;;;10.05;6.13;;;14.20;89.20;;;;;;4994342;28;20416;-52
2022/11/09 06:30:20;;;;;;;10.57;5.97;;;14.20;89.20;;;;;;4977197;28;20026;-58
2022/11/09 06:32:46;;;;;;;13.85;6.43;;;14.20;89.10;;;;;;4987550;28;20034;-47
2022/11/09 06:35:12;;;;;;;19.57;7.13;;;14.20;89.00;;;;;;4987076;28;20591;-51
2022/11/09 06:37:37;;;;;;;16.60;7.47;;;14.20;89.10;;;;;;4987993;28;20403;-51
2022/11/09 06:40:03;;;;;;;17.50;8.37;;;14.20;88.80;;;;;;4987420;28;20298;-55
2022/11/09 06:42:29;;;;;;;17.23;8.52;;;14.20;88.70;;;;;;4987229;28;20088;-53
2022/11/09 06:44:55;;;;;;;14.47;8.53;;;14.20;89.00;;;;;;4984088;28;20113;-51
2022/11/09 06:47:20;;;;;;;16.57;7.83;;;14.20;89.30;;;;;;4988984;28;20045;-50
2022/11/09 06:49:46;;;;;;;15.97;7.07;;;14.20;89.60;;;;;;4988048;28;20041;-51
2022/11/09 06:52:11;;;;;;;17.37;7.33;;;14.30;89.00;;;;;;4987743;28;20043;-52
2022/11/09 06:54:37;;;;;;;11.07;7.37;;;14.20;89.20;;;;;;4983639;28;20486;-50
2022/11/09 06:57:03;;;;;;;14.73;7.93;;;14.20;89.50;;;;;;4985563;28;20429;-51
2022/11/09 06:59:28;;;;;;;12.40;8.53;;;14.20;89.50;;;;;;4986620;28;20065;-55
2022/11/09 07:01:54;;;;;;;15.27;8.93;;;14.20;89.60;;;;;;4986107;28;20376;-54
2022/11/09 07:04:19;;;;;;;15.23;8.13;;;14.20;89.60;;;;;;4990230;28;20037;-45
2022/11/09 07:06:45;;;;;;;20.53;9.00;;;14.20;89.50;;;;;;4982126;28;20038;-51
2022/11/09 07:09:11;;;;;;;15.43;8.43;;;14.20;89.70;;;;;;4986382;28;20626;-48
2022/11/09 07:11:38;;;;;;;13.65;7.80;;;14.20;89.50;;;;;;4983328;28;20055;-57
2022/11/09 07:14:04;;;;;;;16.67;9.20;;;14.20;89.60;;;;;;4987120;28;20034;-50
2022/11/09 07:16:30;;;;;;;19.67;9.13;;;14.30;89.80;;;;;;4984983;28;20097;-56
2022/11/09 07:18:56;;;;;;;17.40;9.25;;;14.30;90.20;;;;;;4986182;28;20062;-56
2022/11/09 07:21:22;;;;;;;19.27;9.23;;;14.20;89.60;;;;;;4987948;28;20138;-58
2022/11/09 07:23:48;;;;;;;20.63;10.30;;;14.30;89.80;;;;;;4984994;28;20109;-58
2022/11/09 07:26:14;;;;;;;18.42;9.38;;;14.30;89.90;;;;;;4986620;28;20037;-57
2022/11/09 07:28:40;;;;;;;17.90;8.55;;;14.30;89.70;;;;;;4987310;28;20629;-56
2022/11/09 07:31:06;;;;;;;13.67;8.23;;;14.30;89.90;;;;;;4985287;28;20051;-54
2022/11/09 07:33:32;;;;;;;16.90;8.80;;;14.30;89.70;;;;;;4986736;28;20037;-57
2022/11/09 07:36:00;;;;;;;15.87;8.30;;;14.30;90.00;;;;;;4985365;28;20031;-57
2022/11/09 07:38:27;;;;;;;12.18;7.93;;;14.30;89.90;;;;;;4984043;28;20096;-53
2022/11/09 07:40:53;;;;;;;14.18;8.30;;;14.30;89.50;;;;;;4987392;28;20038;-55
2022/11/09 07:43:19;;;;;;;12.83;8.13;;;14.30;89.90;;;;;;4986453;28;20384;-49
2022/11/09 07:45:45;;;;;;;15.83;7.70;;;14.30;89.90;;;;;;4985486;28;20320;-48
2022/11/09 07:48:14;;;;;;;10.65;6.88;;;14.40;90.00;;;;;;4987129;28;20082;-50
2022/11/09 07:50:43;;;;;;;13.65;8.02;;;14.40;90.10;;;;;;4981132;28;20364;-53
2022/11/09 07:53:11;;;;;;;12.23;8.82;;;14.40;90.10;;;;;;4982610;28;20031;-51
2022/11/09 07:55:37;;;;;;;12.45;8.10;;;14.30;90.50;;;;;;4985821;28;20065;-53
2022/11/09 07:58:10;;;;;;;14.77;7.70;;;14.30;90.30;;;;;;4985944;28;20054;-52
2022/11/09 08:00:37;;;;;;;13.63;7.78;;;14.30;90.30;;;;;;4985424;28;20042;-54
2022/11/09 08:03:03;;;;;;;15.10;8.55;;;14.30;90.30;;;;;;4984510;28;20391;-54
2022/11/09 08:05:29;;;;;;;14.52;8.88;;;14.30;90.40;;;;;;4984802;28;20035;-55
2022/11/09 08:08:01;;;;;;;13.67;7.63;;;14.30;90.30;;;;;;4985508;28;20034;-54
2022/11/09 08:10:28;;;;;;;15.15;10.00;;;14.40;90.20;;;;;;4988914;28;20030;-55
2022/11/09 08:12:55;;;;;;;16.90;9.27;;;14.40;90.20;;;;;;4982719;28;20530;-57
2022/11/09 08:15:21;;;;;;;12.32;8.70;;;14.40;90.10;;;;;;4984942;28;20023;-56
2022/11/09 08:17:47;;;;;;;16.77;8.87;;;14.40;90.10;;;;;;4988458;28;20231;-50
2022/11/09 08:20:12;;;;;;;17.40;8.23;;;14.40;90.00;;;;;;4984973;28;20070;-58
2022/11/09 08:22:42;;;;;;;12.07;8.50;;;14.50;90.20;;;;;;4982901;28;20038;-58
2022/11/09 08:25:08;;;;;;;16.48;8.13;;;14.50;90.20;;;;;;4986827;28;20115;-56
2022/11/09 08:27:38;;;;;;;14.35;7.57;;;14.40;90.30;;;;;;4986608;28;20721;-55
2022/11/09 08:30:05;;;;;;;12.18;7.00;;;14.50;90.10;;;;;;4984981;28;20225;-51
2022/11/09 08:32:31;;;;;;;9.18;6.25;;;14.50;90.10;;;;;;4983100;28;20038;-56
2022/11/09 08:34:57;;;;;;;11.35;6.47;;;14.50;90.00;;;;;;4988059;28;20465;-56
2022/11/09 08:37:23;;;;;;;8.40;6.53;;;14.50;90.20;;;;;;4984894;28;20109;-58
2022/11/09 08:39:48;;;;;;;10.53;7.00;;;14.50;90.10;;;;;;4984132;28;20034;-49
2022/11/09 08:42:14;;;;;;;10.43;6.77;;;14.50;90.20;;;;;;4986149;28;20033;-53
2022/11/09 08:44:39;;;;;;;8.83;5.70;;;14.60;90.30;;;;;;4985454;28;20501;-54
2022/11/09 08:47:05;;;;;;;9.60;6.10;;;14.60;90.20;;;;;;4985673;28;20528;-56
2022/11/09 08:49:31;;;;;;;9.60;5.90;;;14.60;90.10;;;;;;4985447;28;20026;-52
2022/11/09 08:51:56;;;;;;;7.80;5.63;;;14.60;90.00;;;;;;4988156;28;20022;-53
2022/11/09 08:54:22;;;;;;;8.20;6.00;;;14.70;90.10;;;;;;4986974;28;20046;-48
2022/11/09 08:56:48;;;;;;;11.27;6.45;;;14.70;90.10;;;;;;4987064;28;20065;-53
2022/11/09 08:59:14;;;;;;;11.43;6.60;;;14.70;90.40;;;;;;4987745;28;20806;-52
2022/11/09 09:01:39;;;;;;;12.20;7.23;;;14.70;90.50;;;;;;4988573;28;20037;-54
2022/11/09 09:04:05;;;;;;;12.60;6.37;;;14.70;90.30;;;;;;4986828;28;20041;-52
2022/11/09 09:06:31;;;;;;;13.83;6.57;;;14.70;90.20;;;;;;4988533;28;20109;-50
2022/11/09 09:08:56;;;;;;;8.60;6.00;;;14.70;90.30;;;;;;4988293;28;20034;-52
2022/11/09 09:11:22;;;;;;;14.10;6.43;;;14.70;90.20;;;;;;4988698;28;20035;-50
2022/11/09 09:13:48;;;;;;;10.23;6.47;;;14.70;90.20;;;;;;4988656;28;20080;-50
2022/11/09 09:16:15;;;;;;;10.35;6.40;;;14.70;90.20;;;;;;4989627;28;20034;-48
2022/11/09 09:18:41;;;;;;;11.27;6.45;;;14.70;90.20;;;;;;4988709;28;20049;-47
2022/11/09 09:21:08;;;;;;;13.13;6.93;;;14.70;90.20;;;;;;4988161;28;20034;-49
2022/11/09 09:23:34;;;;;;;13.05;7.15;;;14.70;90.30;;;;;;4989656;28;20047;-47
2022/11/09 09:25:59;;;;;;;13.70;7.20;;;14.70;90.30;;;;;;4989117;28;20069;-47
2022/11/09 09:28:25;;;;;;;12.17;6.97;;;14.70;90.30;;;;;;4987065;28;20023;-52
2022/11/09 09:30:51;;;;;;;11.33;7.17;;;14.80;90.20;;;;;;4989595;28;20372;-45
2022/11/09 09:33:16;;;;;;;11.23;6.95;;;14.80;90.30;;;;;;4988491;28;20030;-48
2022/11/09 09:35:42;;;;;;;12.67;5.93;;;14.80;90.30;;;;;;4989364;28;20060;-46
2022/11/09 09:38:08;;;;;;;10.23;6.47;;;14.80;90.20;;;;;;4990168;28;20030;-45
2022/11/09 09:40:46;;;;;;;12.60;6.93;;;14.80;90.00;;;;;;4988670;28;20129;-49
2022/11/09 09:43:27;;;;;;;16.98;7.65;;;14.90;90.20;;;;;;4987727;28;20018;-58
2022/11/09 09:45:53;;;;;;;12.60;7.22;;;14.90;90.30;;;;;;4986251;28;20030;-52
2022/11/09 09:48:37;;;;;;;14.00;7.65;;;14.80;90.30;;;;;;4988089;28;20829;-58
2022/11/09 09:51:27;;;;;;;15.05;7.22;;;14.90;90.10;;;;;;4982189;28;20594;-56
2022/11/09 09:53:58;;;;;;;12.25;7.93;;;14.90;90.00;;;;;;4985043;28;20026;-57
2022/11/09 09:56:29;;;;;;;13.35;8.00;;;15.00;90.10;;;;;;4987719;28;20089;-53
2022/11/09 09:59:09;;;;;;;15.13;8.57;;;15.00;90.40;;;;;;4988197;28;20113;-52
2022/11/09 10:01:43;;;;;;;18.50;9.52;;;15.00;90.40;;;;;;4988900;28;20426;-56
2022/11/09 10:04:25;;;;;;;14.93;8.82;;;15.00;90.60;;;;;;4987514;28;20030;-53
2022/11/09 10:07:30;;;;;;;12.60;7.82;;;15.00;90.30;;;;;;4989263;28;20027;-57
2022/11/09 10:10:14;;;;;;;20.33;8.90;;;15.00;90.40;;;;;;4978819;28;20061;-55
2022/11/09 10:12:53;;;;;;;19.10;9.40;;;15.00;90.40;;;;;;4984480;28;20041;-49
2022/11/09 10:15:25;;;;;;;10.38;7.10;;;15.00;90.50;;;;;;4985754;28;20065;-57
2022/11/09 10:18:21;;;;;;;14.52;7.43;;;15.00;90.50;;;;;;4985954;28;20034;-50
2022/11/09 10:21:13;;;;;;;13.85;6.95;;;15.00;90.20;;;;;;4986609;28;20161;-54
2022/11/09 10:23:51;;;;;;;12.88;7.93;;;15.00;90.40;;;;;;4989014;28;20018;-53
2022/11/09 10:26:40;;;;;;;13.73;6.68;;;15.10;90.30;;;;;;4987772;28;20038;-56
2022/11/09 10:29:20;;;;;;;16.45;6.60;;;15.10;90.30;;;;;;4984008;28;20043;-53
2022/11/09 10:31:47;;;;;;;11.30;6.15;;;15.10;90.40;;;;;;4986430;28;20438;-55
2022/11/09 10:34:26;;;;;;;9.05;5.93;;;15.10;90.20;;;;;;4987647;28;20162;-56
2022/11/09 10:36:57;;;;;;;11.82;7.10;;;15.10;90.20;;;;;;4981924;28;20026;-57
2022/11/09 10:39:26;;;;;;;10.63;7.53;;;15.20;90.40;;;;;;4987696;28;20035;-58
2022/11/09 10:41:51;;;;;;;11.38;7.25;;;15.20;90.20;;;;;;4988754;28;20463;-58
2022/11/09 10:44:18;;;;;;;12.03;6.93;;;15.30;90.40;;;;;;4989383;28;20109;-57
2022/11/09 10:47:02;;;;;;;;;;;15.30;90.10;;;;;;4987458;28;20064;-57
2022/11/09 10:49:28;;;;;;;17.38;8.52;;;15.30;90.20;;;;;;4986445;28;20016;-59
2022/11/09 10:51:53;;;;;;;12.03;7.33;;;15.40;90.40;;;;;;4981174;28;20502;-56
2022/11/09 10:54:27;;;;;;;10.77;6.87;;;15.40;90.40;;;;;;4988141;28;20030;-52
2022/11/09 10:57:20;;;;;;;10.63;6.97;;;15.50;90.40;;;;;;4979994;28;20019;-58
2022/11/09 10:59:55;;;;;;;11.43;6.25;;;15.50;90.30;;;;;;4985354;28;20506;-53
2022/11/09 11:02:24;;;;;;;8.80;6.38;;;15.50;90.40;;;;;;4989882;28;20031;-56
2022/11/09 11:05:13;;;;;;;7.40;5.75;;;15.60;89.90;;;;;;4983939;28;20116;-55
2022/11/09 11:07:39;;;;;;;8.05;5.65;;;15.60;89.50;;;;;;4982173;28;20556;-52
2022/11/09 11:10:18;;;;;;;9.40;6.43;;;15.60;89.50;;;;;;4986293;28;20507;-55
2022/11/09 11:12:52;;;;;;;15.32;8.50;;;15.60;90.20;;;;;;4988896;28;20495;-55
2022/11/09 11:15:23;;;;;;;13.98;7.38;;;15.60;90.10;;;;;;4985782;28;20038;-57
2022/11/09 11:17:49;;;;;;;10.15;6.30;;;15.60;90.20;;;;;;4983891;28;20030;-56
2022/11/09 11:20:27;;;;;;;13.27;7.25;;;15.70;90.20;;;;;;4985900;28;20043;-61
2022/11/09 11:23:25;;;;;;;12.13;5.40;;;15.70;90.00;;;;;;4986999;28;20141;-61
2022/11/09 11:25:57;;;;;;;25.45;7.28;;;15.70;89.50;;;;;;4996106;28;20069;-54
2022/11/09 11:28:44;;;;;;;12.15;6.07;;;15.70;90.00;;;;;;4983264;28;20022;-53
2022/11/09 11:31:17;;;;;;;12.23;6.57;;;15.70;89.70;;;;;;4985970;28;20565;-48
2022/11/09 11:33:43;;;;;;;9.98;6.32;;;15.70;90.20;;;;;;5000915;28;20044;-49
2022/11/09 11:36:48;;;;;;;14.57;8.23;;;15.60;90.20;;;;;;4986365;28;20034;-51
2022/11/09 11:39:28;;;;;;;11.07;6.13;;;15.60;90.10;;;;;;4985526;28;20069;-50
2022/11/09 11:41:57;;;;;;;7.47;5.20;;;15.60;90.30;;;;;;4984602;28;20031;-49
2022/11/09 11:44:36;;;;;;;7.07;4.30;;;15.60;90.20;;;;;;4985606;28;20023;-48
2022/11/09 11:47:39;;;;;;;6.38;4.18;;;15.60;90.00;;;;;;4986500;28;20030;-56
2022/11/09 11:50:29;;;;;;;6.95;3.67;;;15.60;90.20;;;;;;4979507;28;20065;-57
2022/11/09 11:53:03;;;;;;;5.80;3.92;;;15.60;90.20;;;;;;4984169;28;20046;-54
2022/11/09 11:55:32;;;;;;;8.40;4.35;;;15.70;90.40;;;;;;4985649;28;20026;-59
2022/11/09 11:58:06;;;;;;;5.25;3.42;;;15.70;90.60;;;;;;4988116;28;20034;-53
2022/11/09 12:00:40;;;;;;;7.25;3.42;;;15.80;90.40;;;;;;4983471;28;20089;-49
2022/11/09 12:03:18;;;;;;;6.55;3.28;;;15.70;90.00;;;;;;4981984;28;20039;-51
2022/11/09 12:05:44;;;;;;;5.28;3.17;;;15.80;90.10;;;;;;4987530;28;20117;-55
2022/11/09 12:08:38;;;;;;;8.32;3.47;;;15.70;89.90;;;;;;4985469;28;20034;-56
2022/11/09 12:11:09;;;;;;;7.55;3.50;;;15.70;89.80;;;;;;4982923;28;20018;-53
2022/11/09 12:14:02;;;;;;;8.25;4.00;;;15.60;90.40;;;;;;4984585;28;20522;-55
2022/11/09 12:16:39;;;;;;;6.35;3.92;;;15.70;90.30;;;;;;4984362;28;20381;-55
2022/11/09 12:19:39;;;;;;;6.88;4.00;;;15.70;90.00;;;;;;4984804;28;20370;-52
2022/11/09 12:22:35;;;;;;;7.15;3.95;;;15.70;90.30;;;;;;4979814;28;20411;-56
2022/11/09 12:25:09;;;;;;;5.45;3.60;;;15.60;90.20;;;;;;4980128;28;20097;-50
2022/11/09 12:28:15;;;;;;;6.22;4.15;;;15.60;90.00;;;;;;4983728;28;20026;-53
2022/11/09 12:30:59;;;;;;;5.60;3.83;;;15.60;90.00;;;;;;4987170;28;20109;-53
2022/11/09 12:33:52;;;;;;;11.05;6.07;;;15.40;89.30;;;;;;4984014;28;20038;-54
2022/11/09 12:36:38;;;;;;;8.07;4.05;;;15.40;90.00;;;;;;4984973;28;20061;-52
2022/11/09 12:39:28;;;;;;;7.20;2.53;;;15.30;89.30;;;;;;4983528;28;20109;-53
2022/11/09 12:42:00;;;;;;;6.10;2.28;;;15.10;86.10;;;;;;4986307;28;20030;-57
2022/11/09 12:44:30;;;;;;;9.10;2.13;;;14.90;87.30;;;;;;4985616;28;20026;-57
2022/11/09 12:47:01;;;;;;;3.97;1.70;;;14.80;87.40;;;;;;4980449;28;20494;-55
2022/11/09 12:49:39;;;;;;;8.25;2.15;;;14.70;86.80;;;;;;4986370;28;20038;-57
2022/11/09 12:52:07;;;;;;;5.65;2.10;;;14.50;88.00;;;;;;4987763;28;20026;-50